WMKM/MKZ METAR and TAF weather

Enter ICAO airport designator
Station Type Date Time Source
WMKM METAR 2019/08/25 13:00 UTC NOAA

WMKM 251300Z VRB02KT 9999 FEW028 SCT140 BKN280 29/24 Q1011


Station Type Date Time Source
WMKM Decoded METAR 2019/08/25 13:00 UTC NOAA

Station name not available
Aug 25, 2019 - 09:00 AM EDT / 2019.08.25 1300 UTC
Wind: Variable at 2 MPH (2 KT):0
Visibility: greater than 7 mile(s):0
Sky conditions: mostly cloudy
Temperature: 84 F (29 C)
Dew Point: 75 F (24 C)
Relative Humidity: 74%
Pressure (altimeter): 29.85 in. Hg (1011 hPa)
ob: WMKM 251300Z VRB02KT 9999 FEW028 SCT140 BKN280 29/24 Q1011
cycle: 13

Station Type Date Time Source
WMKM TAF 2019/08/25 12:00 UTC NOAA

TAF WMKM 251100Z 2512/2612 24005KT 9999 FEW020
TEMPO 2519/2523 4000 TSRA FEW017CB SCT018

Example: see airport list